Time;durP1;ratioP1;P1;durP2;ratioP2;P2;SDS_P1;SDS_P2;PMS_P1;PMS_P2;Temp;Humidity;BMP_temperature;BMP_pressure;BME280_temperature;BME280_humidity;BME280_pressure;Samples;Min_cycle;Max_cycle;Signal;HPM_P1;HPM_P2
2024/01/31 00:01:33;;;;;;;2.20;1.70;;;7.00;95.00;;;;;;5051255;28;20672;-65
2024/01/31 00:03:59;;;;;;;2.25;1.88;;;6.90;95.10;;;;;;5051124;28;20492;-64
2024/01/31 00:06:24;;;;;;;3.40;2.00;;;6.90;95.10;;;;;;5051348;28;20271;-64
2024/01/31 00:08:50;;;;;;;2.17;1.97;;;6.80;95.20;;;;;;5051217;28;20455;-64
2024/01/31 00:11:15;;;;;;;2.10;1.67;;;6.70;95.30;;;;;;5051387;28;20546;-65
2024/01/31 00:13:41;;;;;;;2.17;2.03;;;6.70;95.40;;;;;;5051263;28;20180;-64
2024/01/31 00:16:07;;;;;;;1.53;1.40;;;6.60;95.80;;;;;;5051358;28;20179;-65
2024/01/31 00:18:32;;;;;;;2.03;1.83;;;6.40;95.70;;;;;;5051299;28;20589;-64
2024/01/31 00:20:58;;;;;;;2.03;1.93;;;6.40;95.80;;;;;;5051422;28;20169;-65
2024/01/31 00:23:24;;;;;;;1.40;1.30;;;6.40;95.90;;;;;;5050957;28;20193;-64
2024/01/31 00:25:50;;;;;;;3.05;1.50;;;6.30;95.90;;;;;;5050927;28;20218;-65
2024/01/31 00:28:16;;;;;;;1.73;1.40;;;6.10;96.00;;;;;;5050965;28;20239;-65
2024/01/31 00:30:42;;;;;;;4.63;2.53;;;6.00;96.40;;;;;;5050962;28;20205;-65
2024/01/31 00:33:08;;;;;;;3.17;2.70;;;5.90;96.50;;;;;;5050892;28;20173;-65
2024/01/31 00:35:33;;;;;;;2.03;1.90;;;6.00;96.60;;;;;;5051011;28;20436;-64
2024/01/31 00:38:00;;;;;;;1.63;0.90;;;5.90;96.70;;;;;;5054964;28;20478;-65
2024/01/31 00:40:25;;;;;;;2.95;1.95;;;5.80;97.20;;;;;;5054978;28;20655;-65
2024/01/31 00:42:51;;;;;;;2.23;2.03;;;5.90;97.10;;;;;;5054704;28;20273;-65
2024/01/31 00:45:17;;;;;;;3.03;2.13;;;6.00;97.10;;;;;;5055149;28;20235;-64
2024/01/31 00:47:43;;;;;;;2.43;2.10;;;6.10;97.00;;;;;;5054964;28;20199;-64
2024/01/31 00:50:11;;;;;;;2.30;2.10;;;6.20;96.80;;;;;;5054974;28;20173;-64
2024/01/31 00:52:36;;;;;;;1.95;1.80;;;6.30;96.60;;;;;;5054597;28;20179;-64
2024/01/31 00:55:03;;;;;;;2.93;2.13;;;6.30;96.50;;;;;;5054734;28;20192;-65
2024/01/31 00:57:28;;;;;;;1.73;1.63;;;6.20;96.40;;;;;;5054764;28;20666;-64
2024/01/31 00:59:54;;;;;;;1.47;1.30;;;6.10;96.50;;;;;;5054713;28;20181;-64
2024/01/31 01:02:20;;;;;;;1.60;1.50;;;6.10;96.70;;;;;;5054528;28;20659;-64
2024/01/31 01:04:45;;;;;;;2.10;1.90;;;6.20;96.70;;;;;;5054696;28;20208;-64
2024/01/31 01:07:12;;;;;;;1.80;1.70;;;6.10;96.70;;;;;;5054624;28;20633;-64
2024/01/31 01:09:37;;;;;;;2.70;1.70;;;6.20;96.70;;;;;;5054407;28;20300;-64
2024/01/31 01:12:03;;;;;;;3.80;3.50;;;6.10;96.60;;;;;;5054392;28;20249;-64
2024/01/31 01:14:29;;;;;;;3.00;1.73;;;6.20;96.70;;;;;;5054608;28;20279;-64
2024/01/31 01:16:54;;;;;;;2.07;1.97;;;6.20;96.60;;;;;;5054439;28;20754;-64
2024/01/31 01:19:20;;;;;;;2.57;1.80;;;6.20;96.40;;;;;;5054404;28;20651;-64
2024/01/31 01:21:46;;;;;;;1.90;1.77;;;6.20;96.40;;;;;;5054207;28;20202;-64
2024/01/31 01:24:11;;;;;;;2.30;1.60;;;6.10;96.50;;;;;;5053904;28;20203;-64
2024/01/31 01:26:40;;;;;;;3.53;2.30;;;6.00;96.70;;;;;;5054514;28;20683;-65
2024/01/31 01:29:07;;;;;;;3.67;2.10;;;6.10;96.80;;;;;;5054283;28;20471;-65
2024/01/31 01:31:32;;;;;;;2.60;1.83;;;6.00;96.90;;;;;;5054036;28;20177;-64
2024/01/31 01:34:01;;;;;;;3.10;2.90;;;6.00;96.90;;;;;;5053969;28;20272;-64
2024/01/31 01:36:26;;;;;;;1.52;1.42;;;6.00;96.80;;;;;;5054024;28;20167;-64
2024/01/31 01:38:52;;;;;;;2.17;1.97;;;6.10;96.80;;;;;;5053942;28;20222;-64
2024/01/31 01:41:18;;;;;;;2.70;1.77;;;6.00;96.70;;;;;;5054081;28;20178;-64
2024/01/31 01:43:44;;;;;;;2.13;2.00;;;6.00;96.70;;;;;;5053679;28;20417;-64
2024/01/31 01:46:14;;;;;;;2.87;1.73;;;5.90;97.00;;;;;;5054217;28;20645;-64
2024/01/31 01:48:40;;;;;;;3.35;2.28;;;5.80;97.10;;;;;;5053771;28;20285;-64
2024/01/31 01:51:06;;;;;;;3.75;2.97;;;5.70;97.20;;;;;;5053548;28;20264;-64
2024/01/31 01:53:38;;;;;;;1.90;1.80;;;5.80;97.20;;;;;;5053592;28;20337;-64
2024/01/31 01:56:04;;;;;;;3.35;1.65;;;5.80;96.90;;;;;;5053723;28;20183;-65
2024/01/31 01:58:32;;;;;;;2.47;2.28;;;5.80;96.90;;;;;;5053683;28;20245;-65
2024/01/31 02:01:03;;;;;;;2.58;1.75;;;5.60;97.00;;;;;;5053502;28;20175;-65
2024/01/31 02:03:29;;;;;;;2.53;1.85;;;5.60;97.30;;;;;;5053447;28;20180;-64
2024/01/31 02:05:59;;;;;;;2.38;2.28;;;5.50;97.50;;;;;;5053312;28;20277;-65
2024/01/31 02:08:29;;;;;;;1.92;1.83;;;5.50;97.70;;;;;;5053442;28;20207;-64
2024/01/31 02:10:55;;;;;;;1.90;1.80;;;5.50;97.80;;;;;;5053558;28;20185;-64
2024/01/31 02:13:22;;;;;;;4.47;1.80;;;5.40;97.90;;;;;;5053214;28;20182;-64
2024/01/31 02:15:51;;;;;;;1.55;1.45;;;5.50;98.00;;;;;;5051991;28;20581;-64
2024/01/31 02:18:17;;;;;;;7.55;2.03;;;5.40;98.00;;;;;;5053226;28;20603;-65
2024/01/31 02:20:43;;;;;;;1.73;1.63;;;5.50;97.90;;;;;;5053004;28;20201;-65
2024/01/31 02:23:10;;;;;;;2.60;2.00;;;5.50;97.50;;;;;;5053088;28;20572;-64
2024/01/31 02:25:35;;;;;;;2.30;1.77;;;5.40;97.40;;;;;;5053108;28;20513;-62
2024/01/31 02:28:01;;;;;;;2.40;1.73;;;5.40;97.30;;;;;;5052198;28;20218;-64
2024/01/31 02:30:27;;;;;;;2.27;2.07;;;5.40;97.30;;;;;;5053108;28;20181;-63
2024/01/31 02:32:54;;;;;;;3.30;2.87;;;5.30;97.50;;;;;;5053146;28;20250;-63
2024/01/31 02:35:19;;;;;;;2.10;1.98;;;5.30;97.60;;;;;;5053215;28;20202;-63
2024/01/31 02:37:45;;;;;;;3.30;2.43;;;5.30;97.50;;;;;;5053191;28;20178;-63
2024/01/31 02:40:11;;;;;;;2.43;2.23;;;5.20;97.60;;;;;;5053058;28;20178;-63
2024/01/31 02:42:37;;;;;;;1.80;1.70;;;5.20;97.80;;;;;;5052899;28;20576;-63
2024/01/31 02:45:03;;;;;;;3.00;2.20;;;5.10;97.90;;;;;;5052786;28;20191;-63
2024/01/31 02:47:28;;;;;;;2.85;2.28;;;5.20;97.90;;;;;;5053330;28;20662;-63
2024/01/31 02:49:54;;;;;;;2.00;1.83;;;5.10;98.00;;;;;;5053223;28;20200;-62
2024/01/31 02:52:19;;;;;;;3.83;2.80;;;5.00;98.20;;;;;;5052855;28;20171;-62
2024/01/31 02:54:45;;;;;;;3.70;2.50;;;5.00;98.40;;;;;;5052772;28;20194;-62
2024/01/31 02:57:11;;;;;;;2.23;2.13;;;5.00;98.30;;;;;;5052635;28;20178;-63
2024/01/31 02:59:37;;;;;;;4.10;2.50;;;4.90;98.30;;;;;;5051875;28;20178;-63
2024/01/31 03:02:05;;;;;;;2.37;2.17;;;4.90;98.30;;;;;;5052252;28;20930;-63
2024/01/31 03:04:30;;;;;;;2.45;2.13;;;4.80;98.40;;;;;;5052284;28;20213;-63
2024/01/31 03:06:56;;;;;;;2.77;1.67;;;4.80;98.60;;;;;;5052427;28;20175;-63
2024/01/31 03:09:22;;;;;;;2.83;2.53;;;4.80;98.50;;;;;;5052334;28;20208;-62
2024/01/31 03:11:47;;;;;;;2.53;2.33;;;4.90;98.70;;;;;;5052258;28;20277;-63
2024/01/31 03:14:13;;;;;;;6.10;3.67;;;4.90;98.60;;;;;;5052073;28;20183;-63
2024/01/31 03:16:39;;;;;;;3.27;2.57;;;4.90;98.60;;;;;;5052095;28;20162;-63
2024/01/31 03:19:06;;;;;;;3.20;2.30;;;4.80;98.60;;;;;;5052350;28;20186;-63
2024/01/31 03:21:33;;;;;;;2.10;1.90;;;4.80;98.70;;;;;;5052033;28;20205;-63
2024/01/31 03:23:58;;;;;;;6.03;3.10;;;4.80;98.80;;;;;;5052070;28;20198;-63
2024/01/31 03:26:24;;;;;;;2.70;2.40;;;4.80;99.00;;;;;;5052782;28;20521;-63
2024/01/31 03:28:50;;;;;;;3.40;3.10;;;4.80;99.20;;;;;;5051839;28;20389;-62
2024/01/31 03:31:15;;;;;;;4.87;2.60;;;4.90;99.20;;;;;;5051897;28;20173;-63
2024/01/31 03:33:41;;;;;;;4.00;2.33;;;4.80;99.10;;;;;;5051929;28;20182;-63
2024/01/31 03:36:09;;;;;;;2.10;1.90;;;4.70;99.20;;;;;;5050599;28;20672;-62
2024/01/31 03:38:35;;;;;;;2.05;1.88;;;4.70;99.00;;;;;;5051996;28;20219;-64
2024/01/31 03:41:04;;;;;;;4.30;2.53;;;4.70;98.80;;;;;;5051862;28;20170;-63
2024/01/31 03:43:29;;;;;;;3.17;2.40;;;4.60;98.90;;;;;;5050300;28;20667;-63
2024/01/31 03:45:55;;;;;;;3.07;2.77;;;4.70;98.90;;;;;;5051856;28;20198;-63
2024/01/31 03:48:20;;;;;;;4.43;2.70;;;4.60;98.80;;;;;;5051592;28;20218;-63
2024/01/31 03:50:46;;;;;;;3.03;2.67;;;4.60;98.90;;;;;;5051641;28;20262;-63
2024/01/31 03:53:12;;;;;;;2.90;2.70;;;4.50;99.20;;;;;;5051595;28;20175;-63
2024/01/31 03:55:37;;;;;;;3.00;2.77;;;4.60;99.30;;;;;;5051558;28;20221;-63
2024/01/31 03:58:03;;;;;;;2.60;2.40;;;4.60;99.50;;;;;;5051511;28;20261;-63
2024/01/31 04:00:29;;;;;;;3.87;2.80;;;4.50;99.80;;;;;;5051637;28;20183;-63
2024/01/31 04:02:56;;;;;;;1.85;1.75;;;4.50;99.90;;;;;;5051469;28;20431;-63
2024/01/31 04:05:22;;;;;;;3.05;2.40;;;4.60;99.90;;;;;;5051857;28;20685;-63
2024/01/31 04:07:47;;;;;;;2.90;2.63;;;4.70;99.90;;;;;;5051698;28;20212;-62
2024/01/31 04:10:14;;;;;;;5.43;2.57;;;4.90;99.70;;;;;;5051320;28;20661;-63
2024/01/31 04:12:39;;;;;;;3.10;2.65;;;5.10;99.40;;;;;;5051271;28;20171;-63
2024/01/31 04:15:05;;;;;;;7.03;2.60;;;5.10;99.10;;;;;;5051323;28;20675;-63
2024/01/31 04:17:31;;;;;;;3.80;2.70;;;5.20;99.10;;;;;;5051202;28;20171;-63
2024/01/31 04:19:57;;;;;;;2.10;2.00;;;5.20;99.20;;;;;;5051302;28;20163;-63
2024/01/31 04:22:22;;;;;;;2.60;2.40;;;5.20;99.20;;;;;;5051382;28;20513;-63
2024/01/31 04:24:48;;;;;;;3.03;2.73;;;5.20;99.20;;;;;;5051112;28;20212;-63
2024/01/31 04:27:14;;;;;;;2.80;2.40;;;5.30;99.20;;;;;;5051202;28;20162;-63
2024/01/31 04:29:42;;;;;;;3.33;3.03;;;5.40;99.10;;;;;;5051193;28;20190;-63
2024/01/31 04:32:08;;;;;;;2.97;2.60;;;5.40;99.00;;;;;;5051004;28;20257;-63
2024/01/31 04:34:36;;;;;;;2.40;2.20;;;5.40;99.20;;;;;;5051268;28;20278;-63
2024/01/31 04:37:02;;;;;;;2.60;2.40;;;5.40;98.70;;;;;;5051128;28;20181;-63
2024/01/31 04:39:28;;;;;;;2.70;2.50;;;5.40;98.70;;;;;;5051245;28;20174;-63
2024/01/31 04:41:53;;;;;;;3.27;2.67;;;5.40;98.50;;;;;;5050972;28;20175;-63
2024/01/31 04:44:19;;;;;;;4.50;2.83;;;5.50;98.50;;;;;;5051442;28;20198;-63
2024/01/31 04:46:45;;;;;;;6.47;2.73;;;5.60;98.40;;;;;;5051089;28;20187;-63
2024/01/31 04:49:10;;;;;;;4.25;3.13;;;5.60;98.50;;;;;;5050838;28;20223;-63
2024/01/31 04:51:41;;;;;;;3.50;3.00;;;5.60;98.50;;;;;;5051053;28;20695;-63
2024/01/31 04:54:07;;;;;;;3.42;3.00;;;5.60;98.50;;;;;;5050866;28;20271;-62
2024/01/31 04:56:33;;;;;;;4.00;2.97;;;5.60;98.60;;;;;;5051011;28;20265;-63
2024/01/31 04:58:59;;;;;;;3.65;3.35;;;5.60;98.80;;;;;;5051079;28;20443;-63
2024/01/31 05:01:24;;;;;;;6.53;2.97;;;5.50;98.80;;;;;;5051052;28;20876;-63
2024/01/31 05:03:50;;;;;;;4.80;2.97;;;5.50;99.00;;;;;;5050837;28;20172;-63
2024/01/31 05:06:15;;;;;;;2.83;2.50;;;5.50;99.20;;;;;;5050925;28;20248;-63
2024/01/31 05:08:41;;;;;;;3.87;3.57;;;5.60;99.20;;;;;;5050765;28;20190;-62
2024/01/31 05:11:07;;;;;;;3.50;2.43;;;5.60;98.90;;;;;;5051424;28;20162;-62
2024/01/31 05:13:32;;;;;;;4.87;3.00;;;5.50;98.80;;;;;;5050838;28;20163;-63
2024/01/31 05:15:58;;;;;;;3.50;2.67;;;5.50;98.80;;;;;;5051016;28;20242;-63
2024/01/31 05:18:24;;;;;;;5.53;2.60;;;5.60;98.60;;;;;;5050981;28;20415;-63
2024/01/31 05:20:49;;;;;;;4.80;3.27;;;5.50;98.50;;;;;;5050714;28;20200;-63
2024/01/31 05:23:15;;;;;;;4.10;2.93;;;5.40;98.40;;;;;;5053489;28;20275;-63
2024/01/31 05:25:40;;;;;;;4.17;2.53;;;5.30;98.60;;;;;;5054110;28;20199;-63
2024/01/31 05:28:06;;;;;;;2.80;2.60;;;5.20;98.80;;;;;;5054481;28;20198;-63
2024/01/31 05:30:32;;;;;;;4.40;3.53;;;5.10;98.90;;;;;;5054166;28;20586;-63
2024/01/31 05:32:57;;;;;;;3.57;3.03;;;5.10;99.00;;;;;;5054245;28;20245;-62
2024/01/31 05:35:24;;;;;;;3.93;3.60;;;5.00;99.10;;;;;;5054280;28;20213;-63
2024/01/31 05:37:49;;;;;;;7.55;3.28;;;5.00;99.20;;;;;;5054093;28;20175;-62
2024/01/31 05:40:16;;;;;;;2.83;2.17;;;5.00;99.30;;;;;;5053948;28;20174;-63
2024/01/31 05:42:42;;;;;;;2.92;2.65;;;4.90;99.30;;;;;;5054055;28;20232;-62
2024/01/31 05:45:08;;;;;;;3.90;2.80;;;4.70;99.70;;;;;;5053886;28;20194;-63
2024/01/31 05:47:35;;;;;;;3.45;2.53;;;4.70;99.90;;;;;;5053937;28;20181;-63
2024/01/31 05:50:01;;;;;;;5.82;2.97;;;4.60;99.90;;;;;;5054018;28;20186;-62
2024/01/31 05:52:27;;;;;;;2.40;1.98;;;4.50;99.90;;;;;;5053973;28;20637;-63
2024/01/31 05:54:53;;;;;;;5.93;4.03;;;4.50;99.90;;;;;;5053626;28;20208;-63
2024/01/31 05:57:18;;;;;;;6.90;3.30;;;4.40;99.90;;;;;;5053733;28;20206;-63
2024/01/31 05:59:44;;;;;;;6.70;2.90;;;4.50;99.90;;;;;;5053730;28;20203;-63
2024/01/31 06:02:09;;;;;;;3.07;2.70;;;4.60;99.90;;;;;;5053687;28;20243;-63
2024/01/31 06:04:35;;;;;;;3.00;2.70;;;4.60;99.90;;;;;;5053684;28;20196;-63
2024/01/31 06:07:00;;;;;;;4.10;3.30;;;4.70;99.90;;;;;;5053675;28;20166;-63
2024/01/31 06:09:26;;;;;;;5.80;3.63;;;4.70;99.90;;;;;;5053409;28;20199;-63
2024/01/31 06:11:52;;;;;;;5.70;3.60;;;4.70;99.90;;;;;;5053452;28;20170;-63
2024/01/31 06:14:17;;;;;;;3.27;2.97;;;4.70;99.90;;;;;;5053395;28;20244;-63
2024/01/31 06:16:43;;;;;;;6.77;4.50;;;4.50;99.90;;;;;;5053525;28;20184;-63
2024/01/31 06:19:09;;;;;;;4.83;3.93;;;4.40;99.90;;;;;;5053350;28;20171;-63
2024/01/31 06:21:34;;;;;;;3.80;3.50;;;4.20;99.90;;;;;;5053408;28;20179;-63
2024/01/31 06:24:00;;;;;;;3.53;3.23;;;4.30;99.90;;;;;;5052978;28;20216;-63
2024/01/31 06:26:28;;;;;;;11.63;3.33;;;4.30;99.90;;;;;;5053274;28;20488;-63
2024/01/31 06:28:54;;;;;;;5.10;4.65;;;4.30;99.90;;;;;;5053759;28;20271;-63
2024/01/31 06:31:28;;;;;;;7.40;3.40;;;4.30;99.90;;;;;;5053322;28;20249;-64
2024/01/31 06:33:54;;;;;;;4.22;2.50;;;4.50;99.90;;;;;;5052440;28;20922;-61
2024/01/31 06:36:20;;;;;;;3.72;3.08;;;4.70;99.90;;;;;;5053130;28;20285;-60
2024/01/31 06:38:46;;;;;;;3.45;3.15;;;5.50;99.90;;;;;;5053151;28;20183;-61
2024/01/31 06:41:14;;;;;;;7.13;5.28;;;6.50;99.90;;;;;;5053710;28;20730;-60
2024/01/31 06:43:40;;;;;;;5.05;3.90;;;7.40;99.90;;;;;;5053089;28;20184;-61
2024/01/31 06:46:06;;;;;;;5.57;3.97;;;8.20;99.90;;;;;;5053093;28;20184;-61
2024/01/31 06:48:31;;;;;;;4.93;4.43;;;8.90;98.90;;;;;;5053365;28;20239;-62
2024/01/31 06:50:57;;;;;;;6.93;4.07;;;9.50;98.00;;;;;;5053107;28;20174;-62
2024/01/31 06:53:23;;;;;;;5.37;3.27;;;10.00;96.80;;;;;;5052968;28;20173;-62
2024/01/31 06:55:48;;;;;;;6.60;3.10;;;10.40;95.80;;;;;;5052952;28;20275;-61
2024/01/31 06:58:14;;;;;;;6.30;3.77;;;10.70;94.50;;;;;;5052819;28;20676;-63
2024/01/31 07:00:39;;;;;;;3.30;3.10;;;11.00;94.20;;;;;;5051539;28;20852;-62
2024/01/31 07:03:05;;;;;;;3.87;3.37;;;11.20;93.20;;;;;;5052492;28;20178;-60
2024/01/31 07:05:31;;;;;;;3.20;2.97;;;11.30;91.30;;;;;;5052699;28;20223;-61
2024/01/31 07:07:57;;;;;;;6.50;4.30;;;11.50;91.30;;;;;;5052098;28;20206;-60
2024/01/31 07:10:23;;;;;;;5.20;3.30;;;11.60;90.80;;;;;;5053086;28;20295;-61
2024/01/31 07:12:52;;;;;;;3.53;3.23;;;11.70;90.40;;;;;;5052650;28;20404;-62
2024/01/31 07:15:19;;;;;;;3.43;3.13;;;11.70;88.30;;;;;;5053268;28;20198;-63
2024/01/31 07:17:45;;;;;;;3.47;3.17;;;11.20;83.00;;;;;;5054778;28;20417;-62
2024/01/31 07:20:11;;;;;;;3.60;3.30;;;10.40;83.70;;;;;;5054273;28;20412;-63
2024/01/31 07:22:36;;;;;;;3.60;3.17;;;9.60;87.40;;;;;;5053096;28;20193;-62
2024/01/31 07:25:03;;;;;;;6.00;4.23;;;8.90;89.00;;;;;;5053728;28;20448;-62
2024/01/31 07:27:29;;;;;;;4.82;3.58;;;8.20;90.30;;;;;;5055434;28;20213;-60
2024/01/31 07:29:55;;;;;;;5.73;3.40;;;7.70;91.30;;;;;;5055700;28;20197;-63
2024/01/31 07:32:20;;;;;;;3.97;3.50;;;7.20;92.30;;;;;;5053094;28;20170;-62
2024/01/31 07:34:46;;;;;;;5.53;3.40;;;6.90;93.30;;;;;;5052146;28;20189;-61
2024/01/31 07:37:11;;;;;;;4.73;3.80;;;6.80;94.00;;;;;;5053677;28;20177;-62
2024/01/31 07:39:37;;;;;;;4.00;2.83;;;6.70;94.50;;;;;;5053164;28;20174;-62
2024/01/31 07:42:04;;;;;;;6.00;4.47;;;6.60;95.00;;;;;;5052549;28;20177;-62
2024/01/31 07:44:29;;;;;;;3.85;3.45;;;6.40;95.20;;;;;;5053314;28;20199;-62
2024/01/31 07:46:55;;;;;;;4.33;3.93;;;6.30;95.90;;;;;;5053379;28;20645;-63
2024/01/31 07:49:21;;;;;;;5.60;3.90;;;6.20;96.40;;;;;;5052528;28;20241;-62
2024/01/31 07:51:46;;;;;;;6.50;5.30;;;6.20;96.80;;;;;;5052163;28;20183;-63
2024/01/31 07:54:12;;;;;;;4.57;4.17;;;6.30;96.70;;;;;;5051842;28;20186;-63
2024/01/31 07:56:38;;;;;;;6.03;5.43;;;6.30;96.70;;;;;;5052437;28;20215;-62
2024/01/31 07:59:04;;;;;;;6.97;4.50;;;6.30;96.80;;;;;;5052693;28;21311;-62
2024/01/31 08:01:29;;;;;;;6.43;4.43;;;6.30;97.10;;;;;;5052711;28;20671;-62
2024/01/31 08:03:55;;;;;;;4.33;3.33;;;6.40;97.30;;;;;;5051647;28;20424;-62
2024/01/31 08:06:21;;;;;;;3.50;3.20;;;6.40;97.60;;;;;;5051875;28;20631;-63
2024/01/31 08:08:47;;;;;;;4.70;3.57;;;6.60;97.90;;;;;;5051413;28;20208;-62
2024/01/31 08:11:12;;;;;;;5.17;3.73;;;6.70;97.80;;;;;;5051871;28;20178;-61
2024/01/31 08:13:41;;;;;;;6.57;4.57;;;6.80;97.90;;;;;;5045875;28;20775;-61
2024/01/31 08:16:07;;;;;;;5.22;4.72;;;6.80;97.60;;;;;;5057373;28;20175;-62
2024/01/31 08:18:32;;;;;;;7.97;4.90;;;6.90;97.50;;;;;;5047149;28;20182;-62
2024/01/31 08:20:58;;;;;;;9.17;5.30;;;6.90;97.60;;;;;;5053167;28;20431;-62
2024/01/31 08:23:24;;;;;;;9.03;6.80;;;7.00;97.50;;;;;;5054927;28;20181;-62
2024/01/31 08:25:49;;;;;;;8.10;5.40;;;7.00;97.50;;;;;;5099775;22;20254;-61
2024/01/31 08:28:15;;;;;;;10.90;4.77;;;7.00;97.50;;;;;;5082653;28;20211;-60
2024/01/31 08:30:41;;;;;;;6.63;4.73;;;6.90;97.50;;;;;;5083155;28;20217;-59
2024/01/31 08:33:06;;;;;;;5.20;4.47;;;7.00;97.90;;;;;;5085689;28;20178;-59
2024/01/31 08:35:32;;;;;;;4.93;4.10;;;7.10;97.90;;;;;;5088966;28;20548;-61
2024/01/31 08:37:58;;;;;;;7.00;6.30;;;7.30;97.80;;;;;;5085411;28;20223;-61
2024/01/31 08:40:24;;;;;;;9.07;5.90;;;7.40;97.60;;;;;;5082578;28;20253;-60
2024/01/31 08:42:50;;;;;;;7.00;4.87;;;7.50;97.50;;;;;;5082830;28;20176;-60
2024/01/31 08:45:16;;;;;;;8.53;5.50;;;7.60;97.30;;;;;;5079597;28;20206;-59
2024/01/31 08:47:41;;;;;;;6.87;5.27;;;7.80;97.20;;;;;;5081829;28;20193;-61
2024/01/31 08:50:07;;;;;;;5.50;5.00;;;7.90;97.20;;;;;;5082954;28;20180;-60
2024/01/31 08:52:34;;;;;;;7.50;5.33;;;7.90;97.20;;;;;;5091241;28;20176;-60
2024/01/31 08:55:00;;;;;;;5.50;5.00;;;;;;;;;;5086197;28;20899;-61
2024/01/31 08:57:26;;;;;;;4.65;4.25;;;8.10;99.90;;;;;;5080764;28;20223;-62
2024/01/31 08:59:52;;;;;;;7.70;5.15;;;8.00;99.90;;;;;;5055048;28;20174;-63
2024/01/31 09:02:17;;;;;;;6.87;4.40;;;8.20;98.20;;;;;;5054896;28;20824;-64
2024/01/31 09:04:43;;;;;;;6.30;4.30;;;8.30;99.10;;;;;;5055018;28;20194;-63
2024/01/31 09:07:08;;;;;;;5.63;4.20;;;8.40;96.80;;;;;;5055027;28;20671;-62
2024/01/31 09:09:38;;;;;;;5.50;4.13;;;8.50;96.80;;;;;;5054932;28;20198;-62
2024/01/31 09:12:05;;;;;;;7.65;5.45;;;8.60;96.70;;;;;;5036824;28;20216;-61
2024/01/31 09:14:31;;;;;;;7.57;4.90;;;8.60;96.50;;;;;;5054790;28;20202;-62
2024/01/31 09:16:57;;;;;;;2.10;2.00;;;8.70;96.60;;;;;;5054946;28;20169;-58
2024/01/31 09:19:22;;;;;;;6.40;3.90;;;9.00;97.30;;;;;;5071513;28;20188;-60
2024/01/31 09:21:48;;;;;;;6.03;5.27;;;9.50;97.20;;;;;;5082268;28;20180;-61
2024/01/31 09:24:14;;;;;;;8.10;6.80;;;10.00;95.70;;;;;;5087444;28;20185;-61
2024/01/31 09:26:39;;;;;;;6.20;5.33;;;10.10;94.60;;;;;;5084128;28;20186;-61
2024/01/31 09:29:05;;;;;;;9.27;5.70;;;10.10;94.10;;;;;;5082373;28;20201;-62
2024/01/31 09:31:31;;;;;;;6.53;5.93;;;10.00;94.20;;;;;;5083919;28;20706;-62
2024/01/31 09:33:57;;;;;;;7.27;6.03;;;10.00;94.50;;;;;;5086748;28;20540;-62
2024/01/31 09:36:23;;;;;;;8.60;5.30;;;10.10;94.50;;;;;;5090613;28;20422;-62
2024/01/31 09:38:49;;;;;;;8.90;7.20;;;10.10;94.20;;;;;;5082460;28;20242;-61
2024/01/31 09:41:16;;;;;;;11.87;6.97;;;10.10;94.10;;;;;;5088750;28;20651;-62
2024/01/31 09:43:42;;;;;;;6.27;5.60;;;10.20;94.30;;;;;;5086121;28;20901;-62
2024/01/31 09:46:08;;;;;;;6.20;4.90;;;10.40;94.40;;;;;;5094549;28;20908;-61
2024/01/31 09:48:34;;;;;;;7.03;6.33;;;10.60;94.20;;;;;;5094366;28;20457;-62
2024/01/31 09:51:02;;;;;;;11.00;7.00;;;10.70;93.80;;;;;;5083324;28;20185;-62
2024/01/31 09:53:33;;;;;;;8.30;6.60;;;10.70;99.70;;;;;;5080325;28;20322;-62
2024/01/31 09:56:00;;;;;;;9.80;6.53;;;10.80;93.90;;;;;;5087267;28;20444;-61
2024/01/31 09:58:26;;;;;;;5.77;5.17;;;10.80;93.60;;;;;;5090388;28;20415;-62
2024/01/31 10:00:53;;;;;;;6.77;5.30;;;10.80;93.60;;;;;;5094080;28;20414;-62
2024/01/31 10:03:18;;;;;;;4.67;4.20;;;11.00;93.70;;;;;;5094020;28;20428;-62
2024/01/31 10:05:45;;;;;;;7.40;5.53;;;11.10;93.60;;;;;;5094068;28;20513;-61
2024/01/31 10:08:11;;;;;;;6.23;5.63;;;11.30;93.40;;;;;;5090899;28;20224;-62
2024/01/31 10:10:37;;;;;;;10.03;5.70;;;11.50;93.20;;;;;;5083210;28;20790;-62
2024/01/31 10:13:04;;;;;;;9.03;5.23;;;11.80;92.90;;;;;;5093762;28;21129;-62
2024/01/31 10:15:29;;;;;;;5.87;4.63;;;12.30;92.00;;;;;;5093941;28;20430;-62
2024/01/31 10:17:55;;;;;;;5.90;5.00;;;13.00;90.60;;;;;;5094062;28;20464;-61
2024/01/31 10:20:21;;;;;;;8.00;6.70;;;13.80;90.20;;;;;;5093909;28;20180;-61
2024/01/31 10:22:46;;;;;;;5.87;4.63;;;14.50;89.00;;;;;;5093612;28;20181;-62
2024/01/31 10:25:16;;;;;;;8.00;5.53;;;15.50;85.90;;;;;;5093564;28;20853;-61
2024/01/31 10:27:46;;;;;;;9.53;6.20;;;16.30;84.50;;;;;;5093841;28;20176;-61
2024/01/31 10:30:13;;;;;;;8.03;7.23;;;16.80;77.40;;;;;;5093773;28;20407;-62
2024/01/31 10:32:40;;;;;;;8.60;7.37;;;17.40;76.50;;;;;;5093465;28;20931;-61
2024/01/31 10:35:07;;;;;;;8.20;6.33;;;17.90;74.10;;;;;;5093520;28;20429;-62
2024/01/31 10:37:33;;;;;;;7.70;6.20;;;18.50;71.70;;;;;;5093505;28;20403;-62
2024/01/31 10:39:59;;;;;;;8.40;6.50;;;19.10;68.70;;;;;;5093262;28;20505;-61
2024/01/31 10:42:26;;;;;;;6.10;5.47;;;19.70;67.20;;;;;;5086801;28;20419;-61
2024/01/31 10:44:52;;;;;;;5.00;4.50;;;20.00;64.70;;;;;;5084606;28;20521;-62
2024/01/31 10:47:18;;;;;;;6.33;5.43;;;20.20;62.70;;;;;;5093523;28;20422;-61
2024/01/31 10:49:44;;;;;;;7.40;4.70;;;20.10;60.60;;;;;;5093136;28;20549;-62
2024/01/31 10:52:14;;;;;;;5.70;4.40;;;19.70;60.70;;;;;;5092877;28;20176;-61
2024/01/31 10:54:53;;;;;;;7.37;4.77;;;19.20;61.80;;;;;;5092959;28;20713;-61
2024/01/31 10:57:20;;;;;;;6.43;3.80;;;18.70;61.60;;;;;;5093137;28;20434;-61
2024/01/31 10:59:49;;;;;;;4.00;3.57;;;18.30;64.20;;;;;;5092847;28;20419;-61
2024/01/31 11:02:15;;;;;;;6.40;4.07;;;18.10;63.40;;;;;;5092637;28;20418;-61
2024/01/31 11:04:42;;;;;;;5.47;3.77;;;18.00;63.30;;;;;;5092842;28;20438;-61
2024/01/31 11:07:16;;;;;;;4.13;3.73;;;17.60;63.00;;;;;;5092602;28;20986;-61
2024/01/31 11:09:42;;;;;;;4.93;4.20;;;17.10;63.90;;;;;;5092648;28;20469;-61
2024/01/31 11:12:13;;;;;;;7.20;3.90;;;16.60;64.60;;;;;;5092387;28;20411;-61
2024/01/31 11:14:41;;;;;;;3.93;3.53;;;15.90;66.80;;;;;;5092765;28;20430;-61
2024/01/31 11:17:23;;;;;;;4.03;3.40;;;15.70;68.60;;;;;;5092662;28;20490;-63
2024/01/31 11:19:57;;;;;;;6.13;3.43;;;15.00;69.10;;;;;;5091908;28;20415;-61
2024/01/31 11:22:23;;;;;;;5.43;3.47;;;14.40;71.70;;;;;;5074051;28;20490;-61
2024/01/31 11:24:54;;;;;;;3.60;3.30;;;14.00;73.10;;;;;;5092270;28;20861;-64
2024/01/31 11:27:21;;;;;;;4.47;4.07;;;13.60;74.80;;;;;;5092429;28;20456;-61
2024/01/31 11:29:51;;;;;;;4.00;3.70;;;13.40;75.50;;;;;;5078394;28;20477;-61
2024/01/31 11:32:24;;;;;;;5.73;4.57;;;13.20;76.80;;;;;;5080134;28;20431;-61
2024/01/31 11:35:00;;;;;;;5.73;3.37;;;13.10;78.10;;;;;;5082939;28;20435;-61
2024/01/31 11:37:25;;;;;;;3.37;3.03;;;12.90;78.80;;;;;;5092239;28;20787;-61
2024/01/31 11:39:51;;;;;;;4.30;3.90;;;12.60;79.70;;;;;;5087625;28;20431;-61
2024/01/31 11:42:17;;;;;;;3.70;3.00;;;12.60;79.80;;;;;;5079677;28;20238;-60
2024/01/31 11:44:43;;;;;;;4.20;2.90;;;12.60;80.10;;;;;;5082769;28;20207;-61
2024/01/31 11:47:10;;;;;;;4.20;3.23;;;12.60;82.50;;;;;;5085840;28;20497;-60
2024/01/31 11:49:35;;;;;;;3.17;2.87;;;12.40;81.10;;;;;;5085481;28;20608;-61
2024/01/31 11:52:01;;;;;;;3.30;3.00;;;12.30;80.80;;;;;;5084199;28;20494;-61
2024/01/31 11:54:28;;;;;;;3.00;2.80;;;12.20;80.90;;;;;;5091709;28;20358;-60
2024/01/31 11:56:54;;;;;;;3.30;2.70;;;12.00;81.60;;;;;;5091904;28;20168;-61
2024/01/31 11:59:20;;;;;;;3.00;2.60;;;12.20;82.20;;;;;;5091847;28;20410;-64
2024/01/31 12:01:46;;;;;;;4.23;3.30;;;12.20;81.80;;;;;;5091748;28;20794;-61
2024/01/31 12:04:12;;;;;;;5.07;2.80;;;12.40;82.30;;;;;;5091702;28;20413;-61
2024/01/31 12:06:37;;;;;;;3.73;3.40;;;12.60;82.20;;;;;;5091806;28;20561;-61
2024/01/31 12:09:04;;;;;;;3.67;2.70;;;12.80;80.30;;;;;;5091674;28;20454;-61
2024/01/31 12:11:32;;;;;;;3.10;2.80;;;12.60;81.10;;;;;;5091596;28;20176;-61
2024/01/31 12:13:57;;;;;;;3.70;3.27;;;12.50;80.40;;;;;;5079131;28;20417;-61
2024/01/31 12:16:23;;;;;;;7.90;3.43;;;12.30;81.00;;;;;;5071506;28;20435;-61
2024/01/31 12:19:00;;;;;;;2.87;2.67;;;12.20;81.10;;;;;;5073621;28;20204;-61
2024/01/31 12:21:26;;;;;;;3.03;2.73;;;12.00;82.00;;;;;;5082854;28;20719;-61
2024/01/31 12:23:52;;;;;;;2.60;2.40;;;11.80;82.90;;;;;;5091424;28;20446;-61
2024/01/31 12:26:19;;;;;;;3.77;3.10;;;11.70;83.40;;;;;;5091160;28;20806;-61
2024/01/31 12:28:55;;;;;;;3.17;2.70;;;11.80;83.60;;;;;;5091452;28;20523;-61
2024/01/31 12:31:21;;;;;;;5.93;3.40;;;11.90;83.30;;;;;;5091359;28;20934;-61
2024/01/31 12:33:47;;;;;;;3.80;3.50;;;11.80;83.80;;;;;;5095086;28;20398;-61
2024/01/31 12:36:13;;;;;;;6.00;3.73;;;12.00;83.90;;;;;;5095449;28;20480;-61
2024/01/31 12:38:38;;;;;;;4.40;2.77;;;11.90;84.20;;;;;;5095511;28;20180;-61
2024/01/31 12:41:04;;;;;;;4.43;2.73;;;11.70;84.20;;;;;;5095360;28;20242;-60
2024/01/31 12:43:29;;;;;;;3.33;3.00;;;11.40;84.30;;;;;;5088266;28;20186;-61
2024/01/31 12:45:55;;;;;;;9.93;3.30;;;11.40;84.80;;;;;;5086869;28;20731;-61
2024/01/31 12:48:21;;;;;;;3.90;3.60;;;11.40;84.60;;;;;;5081907;28;20205;-61